Main page
METAR-TAF:

METAR-TAF

Airports :

Porto Airport

Porto, Portugal

latitude: 41-14N, longitude: 008-41W, elevation: 69 m

Current weather observation

The report was made 35 minutes ago, at 20:00 UTC
Wind 1 kt from variable directions
Temperature 8°C
Humidity 61%
Pressure 1025 hPa
Visibility 10 km or more
no clouds below 1500 m and no cumulonimbus

METAR: LPPR 212000Z VRB01KT CAVOK 08/01 Q1025

Time: 20:35 (20:35 UTC)

Forecast

The report was made 3 hours and 35 minutes ago, at 17:00 UTC
Forecast valid from 21 at 18 UTC to 22 at 18 UTC
Wind 8 kt from the East
Visibility 10 km or more
no clouds below 1500 m and no cumulonimbus

TAF: LPPR 211700Z 2118/2218 08008KT CAVOK

Weather observations and forecasts of more than 4000 airports (METAR and TAF reports).

The available stations are represented by yellow and red dots on the map.

Hover mouse over dot to see the name of the station.

Then click to see weather observations and forecasts.

To change the map : click on the green buttons with a black cross to zoom in, on the green button with a dash to zoom out, or on the green arrows for adjacent maps.


METAR-TAF: